sensor_id;sensor_type;location;lat;lon;timestamp;P1;durP1;ratioP1;P2;durP2;ratioP2
2390;SDS011;22957;50.824;4.360;2023-03-23T00:01:24;7.07;;;4.47;;
2390;SDS011;22957;50.824;4.360;2023-03-23T00:03:52;4.60;;;3.47;;
2390;SDS011;22957;50.824;4.360;2023-03-23T00:06:19;8.03;;;3.33;;
2390;SDS011;22957;50.824;4.360;2023-03-23T00:08:46;5.67;;;3.47;;
2390;SDS011;22957;50.824;4.360;2023-03-23T00:11:20;6.80;;;3.50;;
2390;SDS011;22957;50.824;4.360;2023-03-23T00:13:47;5.97;;;3.13;;
2390;SDS011;22957;50.824;4.360;2023-03-23T00:16:18;5.40;;;2.93;;
2390;SDS011;22957;50.824;4.360;2023-03-23T00:18:54;3.93;;;2.90;;
2390;SDS011;22957;50.824;4.360;2023-03-23T00:21:24;5.70;;;2.80;;
2390;SDS011;22957;50.824;4.360;2023-03-23T00:24:11;4.67;;;2.80;;
2390;SDS011;22957;50.824;4.360;2023-03-23T00:26:39;4.93;;;3.20;;
2390;SDS011;22957;50.824;4.360;2023-03-23T00:29:07;4.30;;;2.70;;
2390;SDS011;22957;50.824;4.360;2023-03-23T00:31:42;4.17;;;2.87;;
2390;SDS011;22957;50.824;4.360;2023-03-23T00:34:11;5.80;;;3.10;;
2390;SDS011;22957;50.824;4.360;2023-03-23T00:36:43;5.23;;;3.27;;
2390;SDS011;22957;50.824;4.360;2023-03-23T00:39:09;2.90;;;2.60;;
2390;SDS011;22957;50.824;4.360;2023-03-23T00:41:35;4.13;;;2.40;;
2390;SDS011;22957;50.824;4.360;2023-03-23T00:44:01;2.90;;;2.50;;
2390;SDS011;22957;50.824;4.360;2023-03-23T00:46:27;3.23;;;2.80;;
2390;SDS011;22957;50.824;4.360;2023-03-23T00:48:53;7.30;;;2.67;;
2390;SDS011;22957;50.824;4.360;2023-03-23T00:51:19;2.83;;;2.50;;
2390;SDS011;22957;50.824;4.360;2023-03-23T00:53:45;7.33;;;3.20;;
2390;SDS011;22957;50.824;4.360;2023-03-23T00:56:12;2.63;;;2.30;;
2390;SDS011;22957;50.824;4.360;2023-03-23T00:58:38;3.07;;;2.77;;
2390;SDS011;22957;50.824;4.360;2023-03-23T01:01:04;3.20;;;2.70;;
2390;SDS011;22957;50.824;4.360;2023-03-23T01:03:30;4.43;;;3.17;;
2390;SDS011;22957;50.824;4.360;2023-03-23T01:05:56;3.57;;;3.23;;
2390;SDS011;22957;50.824;4.360;2023-03-23T01:08:22;3.27;;;2.90;;
2390;SDS011;22957;50.824;4.360;2023-03-23T01:10:49;3.73;;;3.07;;
2390;SDS011;22957;50.824;4.360;2023-03-23T01:13:15;4.67;;;3.10;;
2390;SDS011;22957;50.824;4.360;2023-03-23T01:15:41;4.90;;;3.70;;
2390;SDS011;22957;50.824;4.360;2023-03-23T01:18:08;4.43;;;2.83;;
2390;SDS011;22957;50.824;4.360;2023-03-23T01:20:35;3.33;;;2.77;;
2390;SDS011;22957;50.824;4.360;2023-03-23T01:23:01;3.47;;;2.77;;
2390;SDS011;22957;50.824;4.360;2023-03-23T01:25:31;3.03;;;2.63;;
2390;SDS011;22957;50.824;4.360;2023-03-23T01:27:59;4.77;;;2.70;;
2390;SDS011;22957;50.824;4.360;2023-03-23T01:30:25;2.60;;;2.23;;
2390;SDS011;22957;50.824;4.360;2023-03-23T01:32:51;3.47;;;2.83;;
2390;SDS011;22957;50.824;4.360;2023-03-23T01:35:17;3.87;;;2.53;;
2390;SDS011;22957;50.824;4.360;2023-03-23T01:37:43;3.23;;;2.70;;
2390;SDS011;22957;50.824;4.360;2023-03-23T01:40:09;4.37;;;2.50;;
2390;SDS011;22957;50.824;4.360;2023-03-23T01:42:36;7.37;;;2.90;;
2390;SDS011;22957;50.824;4.360;2023-03-23T01:47:44;2.93;;;2.60;;
2390;SDS011;22957;50.824;4.360;2023-03-23T01:50:16;3.23;;;2.43;;
2390;SDS011;22957;50.824;4.360;2023-03-23T01:52:42;4.00;;;2.40;;
2390;SDS011;22957;50.824;4.360;2023-03-23T01:55:08;3.60;;;2.50;;
2390;SDS011;22957;50.824;4.360;2023-03-23T01:57:34;2.93;;;2.50;;
2390;SDS011;22957;50.824;4.360;2023-03-23T02:00:01;3.67;;;2.70;;
2390;SDS011;22957;50.824;4.360;2023-03-23T02:02:34;2.40;;;2.20;;
2390;SDS011;22957;50.824;4.360;2023-03-23T02:05:02;6.90;;;2.40;;
2390;SDS011;22957;50.824;4.360;2023-03-23T02:07:33;2.70;;;2.07;;
2390;SDS011;22957;50.824;4.360;2023-03-23T02:09:59;2.80;;;2.20;;
2390;SDS011;22957;50.824;4.360;2023-03-23T02:12:25;2.90;;;2.27;;
2390;SDS011;22957;50.824;4.360;2023-03-23T02:14:51;4.43;;;2.20;;
2390;SDS011;22957;50.824;4.360;2023-03-23T02:25:47;4.40;;;1.90;;
2390;SDS011;22957;50.824;4.360;2023-03-23T02:36:57;9.17;;;1.30;;
2390;SDS011;22957;50.824;4.360;2023-03-23T02:39:29;2.90;;;1.20;;
2390;SDS011;22957;50.824;4.360;2023-03-23T02:42:00;2.70;;;1.30;;
2390;SDS011;22957;50.824;4.360;2023-03-23T02:44:29;2.90;;;1.30;;
2390;SDS011;22957;50.824;4.360;2023-03-23T02:46:59;4.80;;;1.10;;
2390;SDS011;22957;50.824;4.360;2023-03-23T02:49:27;2.10;;;1.10;;
2390;SDS011;22957;50.824;4.360;2023-03-23T02:51:56;3.10;;;1.07;;
2390;SDS011;22957;50.824;4.360;2023-03-23T02:54:24;4.37;;;1.10;;
2390;SDS011;22957;50.824;4.360;2023-03-23T02:56:52;2.93;;;1.20;;
2390;SDS011;22957;50.824;4.360;2023-03-23T02:59:18;4.07;;;1.10;;
2390;SDS011;22957;50.824;4.360;2023-03-23T03:01:45;4.30;;;1.27;;
2390;SDS011;22957;50.824;4.360;2023-03-23T03:04:16;3.40;;;1.00;;
2390;SDS011;22957;50.824;4.360;2023-03-23T03:06:52;2.53;;;1.10;;
2390;SDS011;22957;50.824;4.360;2023-03-23T03:09:29;2.63;;;0.93;;
2390;SDS011;22957;50.824;4.360;2023-03-23T03:12:08;2.67;;;0.90;;
2390;SDS011;22957;50.824;4.360;2023-03-23T03:14:49;2.27;;;1.00;;
2390;SDS011;22957;50.824;4.360;2023-03-23T03:17:24;2.77;;;1.00;;
2390;SDS011;22957;50.824;4.360;2023-03-23T03:19:53;8.90;;;1.57;;
2390;SDS011;22957;50.824;4.360;2023-03-23T03:22:22;3.10;;;0.97;;
2390;SDS011;22957;50.824;4.360;2023-03-23T03:24:53;2.53;;;1.00;;
2390;SDS011;22957;50.824;4.360;2023-03-23T03:27:21;3.33;;;1.20;;
2390;SDS011;22957;50.824;4.360;2023-03-23T03:29:49;5.07;;;1.20;;
2390;SDS011;22957;50.824;4.360;2023-03-23T03:32:24;1.63;;;0.93;;
2390;SDS011;22957;50.824;4.360;2023-03-23T03:34:56;4.60;;;1.50;;
2390;SDS011;22957;50.824;4.360;2023-03-23T03:37:24;4.27;;;1.23;;
2390;SDS011;22957;50.824;4.360;2023-03-23T03:39:50;2.87;;;1.10;;
2390;SDS011;22957;50.824;4.360;2023-03-23T03:42:16;7.13;;;1.10;;
2390;SDS011;22957;50.824;4.360;2023-03-23T03:44:41;5.47;;;1.10;;
2390;SDS011;22957;50.824;4.360;2023-03-23T03:47:07;3.83;;;1.20;;
2390;SDS011;22957;50.824;4.360;2023-03-23T03:49:33;2.90;;;1.07;;
2390;SDS011;22957;50.824;4.360;2023-03-23T03:51:59;3.10;;;1.10;;
2390;SDS011;22957;50.824;4.360;2023-03-23T03:54:24;4.87;;;1.30;;
2390;SDS011;22957;50.824;4.360;2023-03-23T03:56:50;2.47;;;0.90;;
2390;SDS011;22957;50.824;4.360;2023-03-23T03:59:16;4.07;;;1.20;;
2390;SDS011;22957;50.824;4.360;2023-03-23T04:01:42;3.77;;;1.10;;
2390;SDS011;22957;50.824;4.360;2023-03-23T04:04:08;3.93;;;1.60;;
2390;SDS011;22957;50.824;4.360;2023-03-23T04:06:34;4.83;;;1.27;;
2390;SDS011;22957;50.824;4.360;2023-03-23T04:09:01;6.40;;;1.20;;
2390;SDS011;22957;50.824;4.360;2023-03-23T04:11:31;7.70;;;1.10;;
2390;SDS011;22957;50.824;4.360;2023-03-23T04:13:57;5.57;;;1.20;;
2390;SDS011;22957;50.824;4.360;2023-03-23T04:16:22;5.53;;;1.43;;
2390;SDS011;22957;50.824;4.360;2023-03-23T04:18:48;6.13;;;1.30;;
2390;SDS011;22957;50.824;4.360;2023-03-23T04:21:14;6.00;;;1.47;;
2390;SDS011;22957;50.824;4.360;2023-03-23T04:23:40;5.30;;;1.40;;
2390;SDS011;22957;50.824;4.360;2023-03-23T04:26:06;5.07;;;0.90;;
2390;SDS011;22957;50.824;4.360;2023-03-23T04:28:32;6.50;;;1.57;;
2390;SDS011;22957;50.824;4.360;2023-03-23T04:30:59;8.43;;;1.33;;
2390;SDS011;22957;50.824;4.360;2023-03-23T04:33:25;10.00;;;1.27;;
2390;SDS011;22957;50.824;4.360;2023-03-23T04:35:53;3.60;;;1.03;;
2390;SDS011;22957;50.824;4.360;2023-03-23T04:38:20;5.07;;;1.23;;
2390;SDS011;22957;50.824;4.360;2023-03-23T04:40:48;5.27;;;1.30;;
2390;SDS011;22957;50.824;4.360;2023-03-23T04:43:20;5.80;;;1.10;;
2390;SDS011;22957;50.824;4.360;2023-03-23T04:45:52;4.90;;;1.30;;
2390;SDS011;22957;50.824;4.360;2023-03-23T04:48:21;5.33;;;1.27;;
2390;SDS011;22957;50.824;4.360;2023-03-23T04:50:48;4.27;;;1.10;;
2390;SDS011;22957;50.824;4.360;2023-03-23T04:53:15;5.43;;;1.10;;
2390;SDS011;22957;50.824;4.360;2023-03-23T04:55:42;4.63;;;1.07;;
2390;SDS011;22957;50.824;4.360;2023-03-23T04:58:11;5.53;;;1.10;;
2390;SDS011;22957;50.824;4.360;2023-03-23T05:00:41;5.10;;;1.20;;
2390;SDS011;22957;50.824;4.360;2023-03-23T05:03:08;4.03;;;1.17;;
2390;SDS011;22957;50.824;4.360;2023-03-23T05:05:41;5.30;;;1.37;;
2390;SDS011;22957;50.824;4.360;2023-03-23T05:08:07;4.33;;;1.50;;
2390;SDS011;22957;50.824;4.360;2023-03-23T05:10:33;4.40;;;1.40;;
2390;SDS011;22957;50.824;4.360;2023-03-23T05:12:59;4.90;;;1.20;;
2390;SDS011;22957;50.824;4.360;2023-03-23T05:15:24;5.43;;;1.47;;
2390;SDS011;22957;50.824;4.360;2023-03-23T05:17:53;2.90;;;0.90;;
2390;SDS011;22957;50.824;4.360;2023-03-23T05:20:19;3.00;;;1.23;;
2390;SDS011;22957;50.824;4.360;2023-03-23T05:22:45;3.70;;;1.30;;
2390;SDS011;22957;50.824;4.360;2023-03-23T05:25:14;7.70;;;1.50;;
2390;SDS011;22957;50.824;4.360;2023-03-23T05:27:40;4.00;;;1.70;;
2390;SDS011;22957;50.824;4.360;2023-03-23T05:30:13;4.83;;;1.20;;
2390;SDS011;22957;50.824;4.360;2023-03-23T05:32:43;3.93;;;1.40;;
2390;SDS011;22957;50.824;4.360;2023-03-23T05:35:10;10.03;;;1.30;;
2390;SDS011;22957;50.824;4.360;2023-03-23T05:37:36;4.77;;;1.30;;
2390;SDS011;22957;50.824;4.360;2023-03-23T05:40:02;6.70;;;1.63;;
2390;SDS011;22957;50.824;4.360;2023-03-23T05:42:35;4.53;;;1.30;;
2390;SDS011;22957;50.824;4.360;2023-03-23T05:45:04;3.63;;;1.10;;
2390;SDS011;22957;50.824;4.360;2023-03-23T05:47:30;8.10;;;1.33;;
2390;SDS011;22957;50.824;4.360;2023-03-23T05:49:57;5.10;;;1.30;;
2390;SDS011;22957;50.824;4.360;2023-03-23T05:52:23;9.10;;;1.23;;
2390;SDS011;22957;50.824;4.360;2023-03-23T05:54:49;6.00;;;1.50;;
2390;SDS011;22957;50.824;4.360;2023-03-23T05:57:16;6.80;;;1.80;;
2390;SDS011;22957;50.824;4.360;2023-03-23T05:59:43;6.20;;;1.40;;
2390;SDS011;22957;50.824;4.360;2023-03-23T06:02:09;4.60;;;1.60;;
2390;SDS011;22957;50.824;4.360;2023-03-23T06:04:35;5.20;;;1.20;;
2390;SDS011;22957;50.824;4.360;2023-03-23T06:07:03;8.97;;;1.60;;
2390;SDS011;22957;50.824;4.360;2023-03-23T06:09:29;6.57;;;1.70;;
2390;SDS011;22957;50.824;4.360;2023-03-23T06:11:55;7.03;;;1.40;;
2390;SDS011;22957;50.824;4.360;2023-03-23T06:14:21;7.90;;;1.10;;
2390;SDS011;22957;50.824;4.360;2023-03-23T06:16:47;5.43;;;1.30;;
2390;SDS011;22957;50.824;4.360;2023-03-23T06:19:12;5.23;;;1.30;;
2390;SDS011;22957;50.824;4.360;2023-03-23T06:21:39;3.17;;;1.27;;
2390;SDS011;22957;50.824;4.360;2023-03-23T06:24:05;2.43;;;1.30;;
2390;SDS011;22957;50.824;4.360;2023-03-23T06:26:32;8.70;;;1.70;;
2390;SDS011;22957;50.824;4.360;2023-03-23T06:29:02;7.27;;;1.77;;
2390;SDS011;22957;50.824;4.360;2023-03-23T06:31:36;4.87;;;1.40;;
2390;SDS011;22957;50.824;4.360;2023-03-23T06:34:06;3.60;;;1.67;;
2390;SDS011;22957;50.824;4.360;2023-03-23T06:36:33;3.70;;;1.27;;
2390;SDS011;22957;50.824;4.360;2023-03-23T06:39:00;5.93;;;1.40;;
2390;SDS011;22957;50.824;4.360;2023-03-23T06:41:26;4.63;;;1.83;;
2390;SDS011;22957;50.824;4.360;2023-03-23T06:43:51;5.27;;;1.57;;
2390;SDS011;22957;50.824;4.360;2023-03-23T06:46:17;4.80;;;1.40;;
2390;SDS011;22957;50.824;4.360;2023-03-23T06:48:43;7.40;;;1.73;;
2390;SDS011;22957;50.824;4.360;2023-03-23T06:51:08;10.40;;;1.40;;
2390;SDS011;22957;50.824;4.360;2023-03-23T06:53:34;10.03;;;1.93;;
2390;SDS011;22957;50.824;4.360;2023-03-23T06:56:00;4.60;;;1.50;;
2390;SDS011;22957;50.824;4.360;2023-03-23T06:58:25;4.67;;;1.60;;
2390;SDS011;22957;50.824;4.360;2023-03-23T07:00:55;4.50;;;1.17;;
2390;SDS011;22957;50.824;4.360;2023-03-23T07:03:21;4.40;;;1.50;;
2390;SDS011;22957;50.824;4.360;2023-03-23T07:05:47;5.93;;;1.50;;
2390;SDS011;22957;50.824;4.360;2023-03-23T07:08:13;4.40;;;1.40;;
2390;SDS011;22957;50.824;4.360;2023-03-23T07:10:38;3.80;;;1.53;;
2390;SDS011;22957;50.824;4.360;2023-03-23T07:13:04;5.00;;;1.40;;
2390;SDS011;22957;50.824;4.360;2023-03-23T07:15:29;4.00;;;1.50;;
2390;SDS011;22957;50.824;4.360;2023-03-23T07:17:55;4.50;;;1.13;;
2390;SDS011;22957;50.824;4.360;2023-03-23T07:20:21;3.23;;;1.00;;
2390;SDS011;22957;50.824;4.360;2023-03-23T07:22:47;2.60;;;0.90;;
2390;SDS011;22957;50.824;4.360;2023-03-23T07:25:12;3.07;;;0.90;;
2390;SDS011;22957;50.824;4.360;2023-03-23T07:27:38;2.20;;;0.70;;
2390;SDS011;22957;50.824;4.360;2023-03-23T07:30:04;3.50;;;1.10;;
2390;SDS011;22957;50.824;4.360;2023-03-23T07:32:30;5.57;;;0.93;;
2390;SDS011;22957;50.824;4.360;2023-03-23T07:34:56;3.90;;;1.17;;
2390;SDS011;22957;50.824;4.360;2023-03-23T07:37:21;5.67;;;1.17;;
2390;SDS011;22957;50.824;4.360;2023-03-23T07:39:48;2.23;;;1.07;;
2390;SDS011;22957;50.824;4.360;2023-03-23T07:42:13;5.77;;;1.30;;
2390;SDS011;22957;50.824;4.360;2023-03-23T07:44:39;7.43;;;1.33;;
2390;SDS011;22957;50.824;4.360;2023-03-23T07:47:04;3.30;;;1.23;;
2390;SDS011;22957;50.824;4.360;2023-03-23T07:49:30;3.20;;;0.90;;
2390;SDS011;22957;50.824;4.360;2023-03-23T07:51:56;6.13;;;1.20;;
2390;SDS011;22957;50.824;4.360;2023-03-23T07:54:22;4.60;;;1.20;;
2390;SDS011;22957;50.824;4.360;2023-03-23T07:56:48;3.17;;;1.20;;
2390;SDS011;22957;50.824;4.360;2023-03-23T07:59:14;4.93;;;2.33;;
2390;SDS011;22957;50.824;4.360;2023-03-23T08:01:40;2.90;;;1.00;;
2390;SDS011;22957;50.824;4.360;2023-03-23T08:04:06;2.70;;;0.90;;
2390;SDS011;22957;50.824;4.360;2023-03-23T08:06:32;2.70;;;1.00;;
2390;SDS011;22957;50.824;4.360;2023-03-23T08:08:59;4.57;;;1.10;;
2390;SDS011;22957;50.824;4.360;2023-03-23T08:11:25;3.80;;;1.03;;
2390;SDS011;22957;50.824;4.360;2023-03-23T08:13:51;5.90;;;1.07;;
2390;SDS011;22957;50.824;4.360;2023-03-23T08:16:18;5.80;;;1.07;;
2390;SDS011;22957;50.824;4.360;2023-03-23T08:18:44;4.30;;;0.90;;
2390;SDS011;22957;50.824;4.360;2023-03-23T08:21:11;2.40;;;0.97;;
2390;SDS011;22957;50.824;4.360;2023-03-23T08:23:36;2.00;;;0.90;;
2390;SDS011;22957;50.824;4.360;2023-03-23T08:26:03;2.33;;;0.80;;
2390;SDS011;22957;50.824;4.360;2023-03-23T08:28:33;3.10;;;1.10;;
2390;SDS011;22957;50.824;4.360;2023-03-23T08:31:00;2.70;;;1.00;;
2390;SDS011;22957;50.824;4.360;2023-03-23T08:33:31;2.00;;;1.00;;
2390;SDS011;22957;50.824;4.360;2023-03-23T08:35:58;2.00;;;0.80;;
2390;SDS011;22957;50.824;4.360;2023-03-23T08:38:25;3.83;;;0.90;;
2390;SDS011;22957;50.824;4.360;2023-03-23T08:40:56;3.77;;;0.87;;
2390;SDS011;22957;50.824;4.360;2023-03-23T08:43:26;3.03;;;0.90;;
2390;SDS011;22957;50.824;4.360;2023-03-23T08:45:52;3.87;;;1.13;;
2390;SDS011;22957;50.824;4.360;2023-03-23T08:48:18;7.33;;;1.00;;
2390;SDS011;22957;50.824;4.360;2023-03-23T08:50:44;2.50;;;1.10;;
2390;SDS011;22957;50.824;4.360;2023-03-23T08:53:10;3.70;;;0.87;;
2390;SDS011;22957;50.824;4.360;2023-03-23T08:55:36;3.93;;;0.90;;
2390;SDS011;22957;50.824;4.360;2023-03-23T08:58:02;5.27;;;1.20;;
2390;SDS011;22957;50.824;4.360;2023-03-23T09:00:28;2.93;;;1.03;;
2390;SDS011;22957;50.824;4.360;2023-03-23T09:02:54;3.80;;;0.90;;
2390;SDS011;22957;50.824;4.360;2023-03-23T09:05:23;4.40;;;1.20;;
2390;SDS011;22957;50.824;4.360;2023-03-23T09:07:51;4.60;;;1.10;;
2390;SDS011;22957;50.824;4.360;2023-03-23T09:10:18;2.80;;;1.17;;
2390;SDS011;22957;50.824;4.360;2023-03-23T09:12:45;2.57;;;1.00;;
2390;SDS011;22957;50.824;4.360;2023-03-23T09:15:12;4.20;;;1.10;;
2390;SDS011;22957;50.824;4.360;2023-03-23T09:17:43;2.33;;;1.10;;
2390;SDS011;22957;50.824;4.360;2023-03-23T09:20:11;4.10;;;1.17;;
2390;SDS011;22957;50.824;4.360;2023-03-23T09:22:42;2.70;;;1.00;;
2390;SDS011;22957;50.824;4.360;2023-03-23T09:25:10;5.47;;;1.10;;
2390;SDS011;22957;50.824;4.360;2023-03-23T09:27:38;3.70;;;0.90;;
2390;SDS011;22957;50.824;4.360;2023-03-23T09:30:05;4.10;;;0.93;;
2390;SDS011;22957;50.824;4.360;2023-03-23T09:32:33;2.47;;;0.90;;
2390;SDS011;22957;50.824;4.360;2023-03-23T09:35:03;3.47;;;1.33;;
2390;SDS011;22957;50.824;4.360;2023-03-23T09:37:33;6.60;;;1.10;;
2390;SDS011;22957;50.824;4.360;2023-03-23T09:40:00;2.87;;;0.90;;
2390;SDS011;22957;50.824;4.360;2023-03-23T09:50:50;2.60;;;1.03;;
2390;SDS011;22957;50.824;4.360;2023-03-23T09:53:27;4.83;;;1.70;;
2390;SDS011;22957;50.824;4.360;2023-03-23T09:56:00;4.23;;;1.70;;
2390;SDS011;22957;50.824;4.360;2023-03-23T09:58:31;5.87;;;1.40;;
2390;SDS011;22957;50.824;4.360;2023-03-23T10:01:06;3.93;;;1.50;;
2390;SDS011;22957;50.824;4.360;2023-03-23T10:03:37;6.10;;;1.60;;
2390;SDS011;22957;50.824;4.360;2023-03-23T10:06:07;4.10;;;1.30;;
2390;SDS011;22957;50.824;4.360;2023-03-23T10:09:12;4.07;;;1.30;;
2390;SDS011;22957;50.824;4.360;2023-03-23T10:11:43;4.27;;;1.00;;
2390;SDS011;22957;50.824;4.360;2023-03-23T10:22:41;2.53;;;1.23;;
2390;SDS011;22957;50.824;4.360;2023-03-23T10:30:42;3.10;;;1.30;;
2390;SDS011;22957;50.824;4.360;2023-03-23T10:33:57;9.60;;;1.67;;
2390;SDS011;22957;50.824;4.360;2023-03-23T10:38:35;5.23;;;1.40;;
2390;SDS011;22957;50.824;4.360;2023-03-23T10:41:12;2.83;;;1.23;;
2390;SDS011;22957;50.824;4.360;2023-03-23T10:43:40;7.67;;;1.80;;
2390;SDS011;22957;50.824;4.360;2023-03-23T10:46:25;6.73;;;1.93;;
2390;SDS011;22957;50.824;4.360;2023-03-23T10:48:51;4.17;;;1.57;;
2390;SDS011;22957;50.824;4.360;2023-03-23T10:51:20;3.83;;;1.53;;
2390;SDS011;22957;50.824;4.360;2023-03-23T10:53:56;3.07;;;1.40;;
2390;SDS011;22957;50.824;4.360;2023-03-23T10:56:24;4.83;;;1.70;;
2390;SDS011;22957;50.824;4.360;2023-03-23T10:59:10;7.37;;;1.77;;
2390;SDS011;22957;50.824;4.360;2023-03-23T11:01:38;5.77;;;1.60;;
2390;SDS011;22957;50.824;4.360;2023-03-23T11:04:15;6.40;;;2.03;;
2390;SDS011;22957;50.824;4.360;2023-03-23T11:06:45;7.23;;;1.73;;
2390;SDS011;22957;50.824;4.360;2023-03-23T11:09:18;6.20;;;2.00;;
2390;SDS011;22957;50.824;4.360;2023-03-23T11:11:52;6.30;;;2.40;;
2390;SDS011;22957;50.824;4.360;2023-03-23T11:14:31;2.87;;;1.37;;
2390;SDS011;22957;50.824;4.360;2023-03-23T11:17:03;4.73;;;1.70;;
2390;SDS011;22957;50.824;4.360;2023-03-23T11:19:32;5.17;;;1.60;;
2390;SDS011;22957;50.824;4.360;2023-03-23T11:24:30;6.53;;;1.60;;
2390;SDS011;22957;50.824;4.360;2023-03-23T11:27:01;7.17;;;1.57;;
2390;SDS011;22957;50.824;4.360;2023-03-23T11:29:31;7.00;;;1.90;;
2390;SDS011;22957;50.824;4.360;2023-03-23T11:34:31;7.40;;;1.87;;
2390;SDS011;22957;50.824;4.360;2023-03-23T11:37:02;4.63;;;1.97;;
2390;SDS011;22957;50.824;4.360;2023-03-23T11:39:31;5.50;;;2.23;;
2390;SDS011;22957;50.824;4.360;2023-03-23T11:42:00;3.10;;;1.33;;
2390;SDS011;22957;50.824;4.360;2023-03-23T11:44:34;18.83;;;6.33;;
2390;SDS011;22957;50.824;4.360;2023-03-23T11:53:08;8.00;;;1.73;;
2390;SDS011;22957;50.824;4.360;2023-03-23T11:58:12;6.23;;;1.50;;
2390;SDS011;22957;50.824;4.360;2023-03-23T12:00:55;11.67;;;1.73;;
2390;SDS011;22957;50.824;4.360;2023-03-23T12:06:34;3.93;;;1.20;;
2390;SDS011;22957;50.824;4.360;2023-03-23T12:12:07;6.90;;;1.70;;
2390;SDS011;22957;50.824;4.360;2023-03-23T12:20:32;5.77;;;1.60;;
2390;SDS011;22957;50.824;4.360;2023-03-23T12:23:27;5.83;;;1.50;;
2390;SDS011;22957;50.824;4.360;2023-03-23T12:26:18;5.33;;;1.57;;
2390;SDS011;22957;50.824;4.360;2023-03-23T12:39:37;9.63;;;3.17;;
2390;SDS011;22957;50.824;4.360;2023-03-23T12:42:22;8.53;;;1.57;;
2390;SDS011;22957;50.824;4.360;2023-03-23T12:47:48;11.20;;;2.00;;
2390;SDS011;22957;50.824;4.360;2023-03-23T12:53:18;9.20;;;1.83;;
2390;SDS011;22957;50.824;4.360;2023-03-23T12:58:44;4.60;;;1.47;;
2390;SDS011;22957;50.824;4.360;2023-03-23T13:01:12;8.43;;;1.83;;
2390;SDS011;22957;50.824;4.360;2023-03-23T13:06:40;8.27;;;1.70;;
2390;SDS011;22957;50.824;4.360;2023-03-23T13:11:51;5.57;;;1.83;;
2390;SDS011;22957;50.824;4.360;2023-03-23T13:14:41;8.83;;;1.60;;
2390;SDS011;22957;50.824;4.360;2023-03-23T13:28:18;9.03;;;2.00;;
2390;SDS011;22957;50.824;4.360;2023-03-23T13:33:28;6.93;;;1.60;;
2390;SDS011;22957;50.824;4.360;2023-03-23T13:36:04;8.53;;;1.90;;
2390;SDS011;22957;50.824;4.360;2023-03-23T13:38:35;8.33;;;1.50;;
2390;SDS011;22957;50.824;4.360;2023-03-23T13:41:09;7.13;;;1.40;;
2390;SDS011;22957;50.824;4.360;2023-03-23T13:43:38;8.43;;;1.70;;
2390;SDS011;22957;50.824;4.360;2023-03-23T13:46:13;7.20;;;1.37;;
2390;SDS011;22957;50.824;4.360;2023-03-23T13:49:02;7.23;;;1.47;;
2390;SDS011;22957;50.824;4.360;2023-03-23T13:54:30;7.30;;;2.00;;
2390;SDS011;22957;50.824;4.360;2023-03-23T13:57:19;7.57;;;1.93;;
2390;SDS011;22957;50.824;4.360;2023-03-23T13:59:56;8.73;;;1.60;;
2390;SDS011;22957;50.824;4.360;2023-03-23T14:02:39;6.13;;;1.77;;
2390;SDS011;22957;50.824;4.360;2023-03-23T14:05:25;7.60;;;1.60;;
2390;SDS011;22957;50.824;4.360;2023-03-23T14:08:11;8.20;;;1.90;;
2390;SDS011;22957;50.824;4.360;2023-03-23T14:13:17;8.77;;;1.90;;
2390;SDS011;22957;50.824;4.360;2023-03-23T14:15:59;11.93;;;2.20;;
2390;SDS011;22957;50.824;4.360;2023-03-23T14:18:35;10.37;;;2.20;;
2390;SDS011;22957;50.824;4.360;2023-03-23T14:21:03;12.90;;;3.03;;
2390;SDS011;22957;50.824;4.360;2023-03-23T14:23:31;7.27;;;1.77;;
2390;SDS011;22957;50.824;4.360;2023-03-23T14:26:09;9.40;;;2.10;;
2390;SDS011;22957;50.824;4.360;2023-03-23T14:28:41;6.73;;;1.97;;
2390;SDS011;22957;50.824;4.360;2023-03-23T14:31:14;9.23;;;2.27;;
2390;SDS011;22957;50.824;4.360;2023-03-23T14:33:51;9.70;;;2.00;;
2390;SDS011;22957;50.824;4.360;2023-03-23T14:36:29;7.40;;;2.20;;
2390;SDS011;22957;50.824;4.360;2023-03-23T14:41:41;4.87;;;1.30;;
2390;SDS011;22957;50.824;4.360;2023-03-23T14:44:10;4.33;;;1.53;;
2390;SDS011;22957;50.824;4.360;2023-03-23T14:46:41;5.30;;;1.50;;
2390;SDS011;22957;50.824;4.360;2023-03-23T14:49:10;9.80;;;1.63;;
2390;SDS011;22957;50.824;4.360;2023-03-23T14:51:49;6.70;;;1.90;;
2390;SDS011;22957;50.824;4.360;2023-03-23T14:54:20;5.10;;;1.40;;
2390;SDS011;22957;50.824;4.360;2023-03-23T14:56:51;7.60;;;1.60;;
2390;SDS011;22957;50.824;4.360;2023-03-23T14:59:17;5.00;;;1.60;;
2390;SDS011;22957;50.824;4.360;2023-03-23T15:01:43;7.10;;;1.90;;
2390;SDS011;22957;50.824;4.360;2023-03-23T15:04:18;6.50;;;2.23;;
2390;SDS011;22957;50.824;4.360;2023-03-23T15:06:50;11.93;;;2.87;;
2390;SDS011;22957;50.824;4.360;2023-03-23T15:09:20;13.93;;;3.27;;
2390;SDS011;22957;50.824;4.360;2023-03-23T15:11:52;15.07;;;2.90;;
2390;SDS011;22957;50.824;4.360;2023-03-23T15:14:25;9.23;;;2.73;;
2390;SDS011;22957;50.824;4.360;2023-03-23T15:16:57;11.13;;;4.20;;
2390;SDS011;22957;50.824;4.360;2023-03-23T15:19:25;11.80;;;3.73;;
2390;SDS011;22957;50.824;4.360;2023-03-23T15:22:06;12.50;;;4.00;;
2390;SDS011;22957;50.824;4.360;2023-03-23T15:24:43;14.20;;;3.50;;
2390;SDS011;22957;50.824;4.360;2023-03-23T15:27:43;7.43;;;2.83;;
2390;SDS011;22957;50.824;4.360;2023-03-23T15:30:13;10.53;;;3.17;;
2390;SDS011;22957;50.824;4.360;2023-03-23T15:32:39;5.13;;;1.80;;
2390;SDS011;22957;50.824;4.360;2023-03-23T15:35:16;9.40;;;2.40;;
2390;SDS011;22957;50.824;4.360;2023-03-23T15:37:44;6.70;;;1.90;;
2390;SDS011;22957;50.824;4.360;2023-03-23T15:40:16;9.57;;;2.83;;
2390;SDS011;22957;50.824;4.360;2023-03-23T15:42:44;8.40;;;2.60;;
2390;SDS011;22957;50.824;4.360;2023-03-23T15:52:42;10.03;;;2.20;;
2390;SDS011;22957;50.824;4.360;2023-03-23T15:57:50;5.27;;;1.73;;
2390;SDS011;22957;50.824;4.360;2023-03-23T16:00:17;8.50;;;2.37;;
2390;SDS011;22957;50.824;4.360;2023-03-23T16:02:49;10.70;;;2.30;;
2390;SDS011;22957;50.824;4.360;2023-03-23T16:05:19;9.10;;;2.10;;
2390;SDS011;22957;50.824;4.360;2023-03-23T16:07:44;7.50;;;2.07;;
2390;SDS011;22957;50.824;4.360;2023-03-23T16:10:15;11.83;;;1.73;;
2390;SDS011;22957;50.824;4.360;2023-03-23T16:12:44;6.93;;;2.10;;
2390;SDS011;22957;50.824;4.360;2023-03-23T16:15:10;6.43;;;1.80;;
2390;SDS011;22957;50.824;4.360;2023-03-23T16:17:37;7.17;;;1.70;;
2390;SDS011;22957;50.824;4.360;2023-03-23T16:20:08;6.77;;;1.73;;
2390;SDS011;22957;50.824;4.360;2023-03-23T16:22:37;4.50;;;1.50;;
2390;SDS011;22957;50.824;4.360;2023-03-23T16:25:02;8.90;;;2.33;;
2390;SDS011;22957;50.824;4.360;2023-03-23T16:27:29;9.27;;;2.10;;
2390;SDS011;22957;50.824;4.360;2023-03-23T16:29:54;6.90;;;2.37;;
2390;SDS011;22957;50.824;4.360;2023-03-23T16:32:21;11.43;;;2.90;;
2390;SDS011;22957;50.824;4.360;2023-03-23T16:34:47;10.30;;;2.50;;
2390;SDS011;22957;50.824;4.360;2023-03-23T16:37:12;6.93;;;1.90;;
2390;SDS011;22957;50.824;4.360;2023-03-23T16:39:38;12.50;;;2.43;;
2390;SDS011;22957;50.824;4.360;2023-03-23T16:42:03;9.53;;;2.30;;
2390;SDS011;22957;50.824;4.360;2023-03-23T16:44:29;7.10;;;2.53;;
2390;SDS011;22957;50.824;4.360;2023-03-23T16:46:55;4.90;;;1.77;;
2390;SDS011;22957;50.824;4.360;2023-03-23T16:49:20;9.63;;;2.10;;
2390;SDS011;22957;50.824;4.360;2023-03-23T16:51:46;8.53;;;2.17;;
2390;SDS011;22957;50.824;4.360;2023-03-23T16:54:12;9.77;;;2.47;;
2390;SDS011;22957;50.824;4.360;2023-03-23T16:56:38;8.53;;;2.47;;
2390;SDS011;22957;50.824;4.360;2023-03-23T16:59:03;9.73;;;2.00;;
2390;SDS011;22957;50.824;4.360;2023-03-23T17:01:29;12.47;;;3.37;;
2390;SDS011;22957;50.824;4.360;2023-03-23T17:03:54;10.07;;;2.27;;
2390;SDS011;22957;50.824;4.360;2023-03-23T17:06:20;10.70;;;2.30;;
2390;SDS011;22957;50.824;4.360;2023-03-23T17:08:45;12.10;;;2.20;;
2390;SDS011;22957;50.824;4.360;2023-03-23T17:11:11;9.73;;;1.90;;
2390;SDS011;22957;50.824;4.360;2023-03-23T17:13:37;7.80;;;2.70;;
2390;SDS011;22957;50.824;4.360;2023-03-23T17:16:03;12.50;;;2.60;;
2390;SDS011;22957;50.824;4.360;2023-03-23T17:18:28;4.37;;;2.07;;
2390;SDS011;22957;50.824;4.360;2023-03-23T17:20:54;8.10;;;2.30;;